Time;durP1;ratioP1;P1;durP2;ratioP2;P2;SDS_P1;SDS_P2;PMS_P1;PMS_P2;Temp;Humidity;BMP_temperature;BMP_pressure;BME280_temperature;BME280_humidity;BME280_pressure;Samples;Min_cycle;Max_cycle;Signal;HPM_P1;HPM_P2
2023/07/13 00:01:26;;;;;;;88.72;53.40;;;19.40;71.10;;;;;;4963394;28;95554;-46
2023/07/13 00:03:52;;;;;;;87.35;53.08;;;19.40;71.00;;;;;;4965247;28;95284;-45
2023/07/13 00:06:19;;;;;;;88.35;53.15;;;19.30;71.70;;;;;;4967015;28;94921;-46
2023/07/13 00:08:45;;;;;;;89.28;53.10;;;19.30;71.10;;;;;;4962149;28;98549;-43
2023/07/13 00:11:11;;;;;;;88.55;53.53;;;19.40;72.20;;;;;;4964656;28;99019;-45
2023/07/13 00:13:39;;;;;;;87.93;53.05;;;19.30;71.20;;;;;;4969766;28;94889;-44
2023/07/13 00:16:04;;;;;;;87.22;53.10;;;19.30;71.20;;;;;;4963589;28;96624;-45
2023/07/13 00:18:30;;;;;;;89.32;53.22;;;19.30;71.90;;;;;;4965820;28;94881;-44
2023/07/13 00:21:04;;;;;;;88.78;53.05;;;19.20;71.30;;;;;;4968768;28;94692;-47
2023/07/13 00:23:38;;;;;;;87.63;53.53;;;19.30;71.50;;;;;;4963604;28;96122;-45
2023/07/13 00:26:07;;;;;;;89.68;53.40;;;19.20;71.90;;;;;;4967391;28;96158;-43
2023/07/13 00:28:34;;;;;;;89.10;53.17;;;19.20;72.40;;;;;;4965467;28;99117;-43
2023/07/13 00:31:00;;;;;;;88.47;53.10;;;19.20;71.50;;;;;;4967493;28;94616;-41
2023/07/13 00:33:28;;;;;;;89.25;53.40;;;19.20;72.80;;;;;;4966523;28;97644;-43
2023/07/13 00:35:55;;;;;;;90.28;53.53;;;19.10;72.60;;;;;;4966107;28;95573;-42
2023/07/13 00:38:21;;;;;;;88.50;52.97;;;19.10;72.70;;;;;;4965174;28;96712;-42
2023/07/13 00:40:47;;;;;;;88.47;53.50;;;19.10;71.70;;;;;;4963591;28;98162;-43
2023/07/13 00:43:19;;;;;;;88.32;53.13;;;19.10;71.80;;;;;;4962989;28;98787;-42
2023/07/13 00:45:45;;;;;;;89.28;53.42;;;19.10;72.10;;;;;;4966013;28;95101;-43
2023/07/13 00:48:18;;;;;;;87.45;53.25;;;19.10;73.20;;;;;;4963316;28;96321;-41
2023/07/13 00:50:46;;;;;;;89.72;53.72;;;19.00;72.50;;;;;;4967473;28;95815;-41
2023/07/13 00:53:13;;;;;;;88.13;53.38;;;19.00;72.00;;;;;;4962298;28;95011;-42
2023/07/13 00:55:40;;;;;;;86.60;53.22;;;19.00;72.60;;;;;;4960584;28;97022;-41
2023/07/13 00:58:06;;;;;;;88.30;53.13;;;19.00;72.70;;;;;;4964404;28;95608;-43
2023/07/13 01:00:37;;;;;;;88.35;53.10;;;19.00;72.80;;;;;;4968562;28;96159;-42
2023/07/13 01:03:04;;;;;;;;;;;19.00;72.50;;;;;;4965013;28;96002;-41
2023/07/13 01:05:31;;;;;;;85.78;52.78;;;18.90;72.10;;;;;;4964727;28;95467;-41
2023/07/13 01:07:58;;;;;;;87.25;53.40;;;18.90;73.10;;;;;;4963745;28;96600;-43
2023/07/13 01:10:25;;;;;;;89.38;53.38;;;18.90;72.40;;;;;;4959665;28;97720;-41
2023/07/13 01:12:51;;;;;;;88.32;53.30;;;18.90;72.20;;;;;;4964002;28;96470;-41
2023/07/13 01:15:58;;;;;;;87.80;53.17;;;18.90;72.90;;;;;;4965210;28;95145;-42
2023/07/13 01:18:27;;;;;;;88.28;53.35;;;18.90;72.50;;;;;;4900391;28;95535;-43
2023/07/13 01:20:58;;;;;;;86.93;53.20;;;18.80;72.30;;;;;;4905079;28;95253;-42
2023/07/13 01:23:26;;;;;;;88.40;53.10;;;18.80;72.40;;;;;;4940941;28;97262;-42
2023/07/13 01:25:54;;;;;;;89.55;53.15;;;18.80;72.70;;;;;;4962412;28;95180;-42
2023/07/13 01:28:22;;;;;;;89.32;53.25;;;18.80;72.50;;;;;;4965581;28;95336;-42
2023/07/13 01:30:48;;;;;;;89.15;53.05;;;18.80;72.50;;;;;;4965660;28;94218;-41
2023/07/13 01:33:16;;;;;;;89.65;53.17;;;18.80;72.40;;;;;;4963702;28;95750;-41
2023/07/13 01:35:43;;;;;;;88.47;53.08;;;18.80;72.40;;;;;;4963729;28;97607;-43
2023/07/13 01:38:10;;;;;;;86.65;53.00;;;18.70;72.70;;;;;;4965320;28;96576;-43
2023/07/13 01:40:38;;;;;;;87.60;53.05;;;18.70;73.00;;;;;;4963836;28;95510;-44
2023/07/13 01:43:04;;;;;;;87.68;53.25;;;18.70;73.30;;;;;;4963777;28;99013;-45
2023/07/13 01:45:30;;;;;;;88.13;53.20;;;18.70;73.10;;;;;;4967543;28;94824;-44
2023/07/13 01:47:55;;;;;;;86.38;53.15;;;18.70;73.50;;;;;;4965752;28;94995;-43
2023/07/13 01:50:21;;;;;;;86.93;53.35;;;18.70;73.80;;;;;;4966979;28;95532;-43
2023/07/13 01:52:47;;;;;;;86.93;53.25;;;18.70;73.20;;;;;;4964895;28;95599;-46
2023/07/13 01:55:13;;;;;;;86.03;52.85;;;18.70;73.40;;;;;;4963682;28;96433;-47
2023/07/13 01:57:39;;;;;;;87.10;52.83;;;18.60;73.20;;;;;;4958626;28;98250;-45
2023/07/13 02:00:07;;;;;;;87.63;53.58;;;18.60;73.10;;;;;;4965621;28;96605;-45
2023/07/13 02:02:33;;;;;;;87.80;53.17;;;18.60;73.00;;;;;;4964756;28;96049;-43
2023/07/13 02:04:58;;;;;;;86.03;52.95;;;18.60;74.60;;;;;;4946674;28;95371;-44
2023/07/13 02:07:24;;;;;;;87.82;52.92;;;18.60;73.80;;;;;;4963592;28;99093;-45
2023/07/13 02:09:50;;;;;;;88.32;53.45;;;18.60;73.40;;;;;;4964678;28;96216;-45
2023/07/13 02:12:15;;;;;;;91.97;53.65;;;18.60;73.90;;;;;;4962918;28;95350;-43
2023/07/13 02:14:41;;;;;;;89.32;53.30;;;18.60;73.50;;;;;;4963158;28;95274;-44
2023/07/13 02:17:07;;;;;;;88.55;52.95;;;18.50;73.70;;;;;;4961963;28;97490;-43
2023/07/13 02:19:33;;;;;;;87.30;52.92;;;18.50;73.40;;;;;;4967039;28;98284;-44
2023/07/13 02:21:58;;;;;;;89.63;53.53;;;18.50;74.30;;;;;;4963400;28;95712;-47
2023/07/13 02:24:24;;;;;;;88.65;53.08;;;18.50;73.80;;;;;;4963348;28;95422;-44
2023/07/13 02:26:50;;;;;;;91.57;53.45;;;18.50;74.00;;;;;;4963165;28;96895;-45
2023/07/13 02:29:16;;;;;;;86.72;53.00;;;18.50;73.70;;;;;;4964203;28;98065;-47
2023/07/13 02:31:41;;;;;;;86.82;53.30;;;18.50;73.30;;;;;;4963092;28;98837;-44
2023/07/13 02:34:07;;;;;;;85.18;52.88;;;18.50;73.40;;;;;;4963647;28;97831;-47
2023/07/13 02:36:33;;;;;;;87.22;53.05;;;18.50;73.50;;;;;;4949307;28;95377;-44
2023/07/13 02:39:02;;;;;;;86.70;52.92;;;18.40;73.40;;;;;;4963150;28;94752;-45
2023/07/13 02:41:28;;;;;;;87.15;52.75;;;18.40;73.40;;;;;;4961453;28;95500;-45
2023/07/13 02:44:02;;;;;;;89.18;53.05;;;18.40;73.20;;;;;;4964327;28;95023;-46
2023/07/13 02:46:29;;;;;;;87.32;53.22;;;18.40;73.80;;;;;;4962741;28;95841;-48
2023/07/13 02:48:54;;;;;;;86.80;53.20;;;18.40;73.50;;;;;;4959582;28;97421;-44
2023/07/13 02:51:20;;;;;;;87.63;52.97;;;18.40;73.70;;;;;;4960735;28;97527;-46
2023/07/13 02:53:46;;;;;;;88.43;53.58;;;18.40;74.00;;;;;;4963238;28;98097;-43
2023/07/13 02:56:12;;;;;;;86.65;53.05;;;18.40;74.60;;;;;;4958838;28;96927;-44
2023/07/13 02:58:38;;;;;;;88.30;53.17;;;18.30;73.80;;;;;;4959388;28;97879;-43
2023/07/13 03:01:09;;;;;;;86.63;52.88;;;18.40;74.00;;;;;;4960493;28;98921;-43
2023/07/13 03:03:35;;;;;;;86.75;53.00;;;18.40;73.90;;;;;;4957154;28;95042;-48
2023/07/13 03:06:03;;;;;;;86.55;52.92;;;18.30;73.70;;;;;;4958355;28;95044;-46
2023/07/13 03:08:29;;;;;;;87.13;53.17;;;18.30;73.90;;;;;;4965841;28;95588;-44
2023/07/13 03:11:07;;;;;;;87.90;52.90;;;18.30;75.00;;;;;;4959799;28;95562;-43
2023/07/13 03:13:33;;;;;;;86.30;52.70;;;18.20;74.80;;;;;;4962912;28;96146;-43
2023/07/13 03:15:59;;;;;;;87.13;53.10;;;18.30;75.10;;;;;;4961092;28;96872;-44
2023/07/13 03:18:27;;;;;;;86.15;52.65;;;18.30;73.70;;;;;;4952936;28;96295;-45
2023/07/13 03:20:53;;;;;;;87.88;53.22;;;18.20;73.70;;;;;;4969991;28;95074;-47
2023/07/13 03:23:20;;;;;;;85.88;52.45;;;18.20;74.00;;;;;;4969727;28;96595;-44
2023/07/13 03:25:46;;;;;;;87.32;53.22;;;18.20;73.90;;;;;;4964408;28;95161;-44
2023/07/13 03:28:12;;;;;;;85.78;53.08;;;18.20;73.80;;;;;;4966201;28;94932;-45
2023/07/13 03:30:39;;;;;;;85.05;52.78;;;18.20;74.90;;;;;;4970535;28;96063;-46
2023/07/13 03:33:05;;;;;;;86.97;53.13;;;18.20;77.20;;;;;;4966716;28;94757;-44
2023/07/13 03:35:32;;;;;;;85.85;52.67;;;18.10;74.40;;;;;;4967678;28;95331;-47
2023/07/13 03:37:58;;;;;;;86.80;52.95;;;18.10;75.00;;;;;;4968752;28;96511;-48
2023/07/13 03:40:26;;;;;;;86.72;52.97;;;18.10;74.10;;;;;;4965786;28;96491;-44
2023/07/13 03:42:52;;;;;;;89.40;53.05;;;18.10;74.70;;;;;;4962808;28;99644;-44
2023/07/13 03:45:18;;;;;;;85.22;52.90;;;18.10;75.00;;;;;;4968613;28;96277;-43
2023/07/13 03:47:44;;;;;;;87.95;53.08;;;18.10;74.30;;;;;;4970808;28;96415;-45
2023/07/13 03:50:10;;;;;;;87.78;53.05;;;18.10;74.70;;;;;;4953899;28;95218;-45
2023/07/13 03:52:36;;;;;;;87.32;53.08;;;18.10;75.50;;;;;;4967926;28;95261;-44
2023/07/13 03:55:02;;;;;;;86.22;52.88;;;18.10;75.00;;;;;;4965332;28;95647;-43
2023/07/13 03:57:31;;;;;;;85.80;52.70;;;18.00;74.30;;;;;;4966634;28;95197;-50
2023/07/13 03:59:56;;;;;;;85.47;52.88;;;18.10;77.00;;;;;;4968719;28;96976;-45
2023/07/13 04:02:22;;;;;;;86.13;52.95;;;18.00;74.30;;;;;;4970203;28;96042;-45
2023/07/13 04:04:48;;;;;;;86.30;52.88;;;18.00;76.80;;;;;;4967119;28;99335;-45
2023/07/13 04:07:13;;;;;;;87.68;53.28;;;18.00;74.60;;;;;;4966009;28;98304;-45
2023/07/13 04:09:39;;;;;;;86.15;53.17;;;18.00;74.50;;;;;;4967504;28;95281;-47
2023/07/13 04:12:05;;;;;;;86.57;52.70;;;18.00;74.80;;;;;;4966979;28;96798;-43
2023/07/13 04:14:31;;;;;;;88.05;52.95;;;18.10;74.40;;;;;;4966214;28;95093;-46
2023/07/13 04:16:57;;;;;;;87.13;53.00;;;18.10;74.70;;;;;;4969587;28;95200;-46
2023/07/13 04:19:23;;;;;;;86.63;52.95;;;18.10;74.70;;;;;;4966680;28;96056;-46
2023/07/13 04:21:49;;;;;;;85.15;52.78;;;18.10;74.30;;;;;;4969654;28;97520;-45
2023/07/13 04:24:15;;;;;;;85.10;52.88;;;18.10;74.10;;;;;;4966500;28;95989;-44
2023/07/13 04:26:40;;;;;;;86.10;52.95;;;18.10;74.30;;;;;;4959641;28;97323;-48
2023/07/13 04:29:07;;;;;;;87.80;53.13;;;18.10;75.00;;;;;;4962402;28;96555;-45
2023/07/13 04:31:33;;;;;;;88.13;53.15;;;18.20;74.90;;;;;;4960256;28;99424;-43
2023/07/13 04:33:59;;;;;;;87.35;52.95;;;18.20;73.90;;;;;;4961549;28;94707;-43
2023/07/13 04:36:28;;;;;;;89.35;53.17;;;18.20;75.10;;;;;;4963427;28;97148;-47
2023/07/13 04:38:54;;;;;;;86.75;53.08;;;18.20;74.40;;;;;;4960497;28;96469;-41
2023/07/13 04:41:21;;;;;;;88.03;52.90;;;18.20;73.80;;;;;;4958877;28;96127;-42
2023/07/13 04:43:50;;;;;;;87.00;53.10;;;18.20;75.00;;;;;;4943182;28;95438;-42
2023/07/13 04:46:20;;;;;;;86.22;53.20;;;18.20;74.10;;;;;;4963755;28;94231;-42
2023/07/13 04:48:46;;;;;;;87.38;52.65;;;18.20;73.60;;;;;;4959509;28;94683;-41
2023/07/13 04:51:12;;;;;;;86.60;53.17;;;18.30;73.70;;;;;;4955777;28;98629;-42
2023/07/13 04:53:38;;;;;;;86.88;52.95;;;18.30;73.40;;;;;;4955466;28;97324;-43
2023/07/13 04:56:04;;;;;;;87.25;53.60;;;18.30;74.50;;;;;;4958374;28;95851;-42
2023/07/13 04:58:30;;;;;;;86.38;52.35;;;18.30;75.30;;;;;;4954214;28;95666;-43
2023/07/13 05:01:06;;;;;;;85.28;53.03;;;18.30;74.10;;;;;;4956271;28;97176;-41
2023/07/13 05:03:32;;;;;;;87.90;52.75;;;18.40;73.50;;;;;;4960408;28;98342;-41
2023/07/13 05:06:03;;;;;;;85.50;52.83;;;18.40;73.20;;;;;;4961376;28;99187;-41
2023/07/13 05:08:29;;;;;;;86.53;53.33;;;18.40;73.50;;;;;;4961740;28;96362;-44
2023/07/13 05:10:55;;;;;;;86.90;53.10;;;18.50;73.60;;;;;;4957729;28;94296;-42
2023/07/13 05:13:22;;;;;;;85.80;53.00;;;18.50;75.00;;;;;;4963245;28;96113;-41
2023/07/13 05:15:59;;;;;;;86.35;53.13;;;18.50;73.10;;;;;;4963687;28;94790;-42
2023/07/13 05:18:24;;;;;;;87.38;53.20;;;18.50;73.20;;;;;;4964710;28;96121;-41
2023/07/13 05:21:06;;;;;;;85.95;53.05;;;18.50;72.60;;;;;;4964071;28;98824;-41
2023/07/13 05:23:34;;;;;;;85.97;53.10;;;18.60;74.30;;;;;;4964903;28;96650;-42
2023/07/13 05:26:00;;;;;;;88.65;53.17;;;18.60;73.10;;;;;;4961413;28;95055;-41
2023/07/13 05:28:27;;;;;;;87.22;53.30;;;18.70;73.00;;;;;;4963240;28;95941;-41
2023/07/13 05:30:56;;;;;;;87.20;53.35;;;18.70;72.50;;;;;;4966526;28;94725;-42
2023/07/13 05:33:22;;;;;;;86.70;53.03;;;18.70;72.40;;;;;;4967503;28;94750;-41
2023/07/13 05:35:48;;;;;;;88.10;53.05;;;18.70;73.10;;;;;;4965549;28;98830;-42
2023/07/13 05:38:14;;;;;;;88.22;53.00;;;18.70;73.90;;;;;;4959526;28;94830;-41
2023/07/13 05:40:42;;;;;;;88.03;53.33;;;18.80;72.10;;;;;;4964634;28;95281;-42
2023/07/13 05:43:07;;;;;;;86.93;53.40;;;18.80;71.90;;;;;;4962310;28;98389;-42
2023/07/13 05:45:33;;;;;;;90.35;53.40;;;18.80;72.00;;;;;;4965748;28;94803;-42
2023/07/13 05:47:59;;;;;;;87.25;52.92;;;18.80;73.50;;;;;;4962965;28;95279;-45
2023/07/13 05:50:26;;;;;;;87.15;53.50;;;18.90;72.70;;;;;;4959472;28;97374;-43
2023/07/13 05:52:52;;;;;;;90.53;53.85;;;18.90;72.10;;;;;;4963716;28;95240;-45
2023/07/13 05:55:18;;;;;;;87.63;53.30;;;18.90;72.10;;;;;;4963269;28;94720;-43
2023/07/13 05:57:44;;;;;;;87.97;53.35;;;18.90;72.70;;;;;;4959574;28;95620;-46
2023/07/13 06:00:10;;;;;;;87.95;53.25;;;19.00;71.70;;;;;;4963728;28;96231;-45
2023/07/13 06:02:36;;;;;;;87.65;53.22;;;19.00;71.90;;;;;;4956846;28;97610;-45
2023/07/13 06:05:02;;;;;;;87.35;53.13;;;19.00;72.00;;;;;;4964463;28;97027;-44
2023/07/13 06:07:28;;;;;;;88.05;53.38;;;19.00;72.40;;;;;;4958198;28;97903;-46
2023/07/13 06:09:53;;;;;;;87.28;52.97;;;19.00;72.00;;;;;;4961823;28;97661;-48
2023/07/13 06:12:19;;;;;;;86.50;53.15;;;19.10;71.50;;;;;;4951604;28;94830;-46
2023/07/13 06:14:45;;;;;;;89.53;53.25;;;19.10;72.20;;;;;;4964362;28;96050;-45
2023/07/13 06:17:10;;;;;;;88.40;53.03;;;19.10;73.30;;;;;;4969328;28;95843;-44
2023/07/13 06:19:36;;;;;;;87.55;53.50;;;19.10;72.40;;;;;;4962140;28;98308;-44
2023/07/13 06:22:02;;;;;;;87.78;53.47;;;19.20;74.60;;;;;;4963297;28;96499;-46
2023/07/13 06:24:28;;;;;;;91.28;53.22;;;19.30;75.00;;;;;;4945644;28;94804;-44
2023/07/13 06:26:55;;;;;;;90.05;53.58;;;19.30;73.20;;;;;;4961062;28;94687;-44
2023/07/13 06:29:21;;;;;;;89.47;54.95;;;19.30;72.80;;;;;;4948339;28;99692;-47
2023/07/13 06:31:47;;;;;;;116.00;81.32;;;19.30;71.80;;;;;;4962162;28;97161;-45
2023/07/13 06:34:12;;;;;;;111.45;73.40;;;19.30;71.20;;;;;;4967499;28;95111;-44
2023/07/13 06:36:38;;;;;;;116.22;79.00;;;19.30;72.00;;;;;;4952449;28;96853;-45
2023/07/13 06:39:04;;;;;;;107.80;68.80;;;19.30;71.10;;;;;;4968290;28;95070;-44
2023/07/13 06:41:30;;;;;;;110.60;72.28;;;19.40;71.10;;;;;;4962333;28;95875;-46
2023/07/13 06:43:56;;;;;;;106.95;71.30;;;19.40;71.60;;;;;;4965014;28;95508;-45
2023/07/13 06:46:23;;;;;;;105.63;71.00;;;19.40;70.60;;;;;;4957533;28;99622;-44
2023/07/13 06:48:48;;;;;;;101.20;65.82;;;19.40;71.00;;;;;;4963918;28;96588;-46
2023/07/13 06:51:14;;;;;;;92.05;57.92;;;19.40;70.80;;;;;;4966138;28;96243;-46
2023/07/13 06:53:40;;;;;;;105.32;66.20;;;19.50;70.60;;;;;;4971332;28;95178;-48
2023/07/13 06:56:06;;;;;;;106.75;70.93;;;19.50;70.90;;;;;;4966763;28;96105;-44
2023/07/13 06:58:34;;;;;;;105.72;69.65;;;19.50;71.80;;;;;;4967099;28;96832;-46
2023/07/13 07:01:00;;;;;;;98.40;60.33;;;19.60;71.70;;;;;;4962945;28;96954;-43
2023/07/13 07:03:26;;;;;;;99.57;63.65;;;19.60;70.80;;;;;;4970705;28;98998;-45
2023/07/13 07:05:52;;;;;;;99.55;63.70;;;19.60;70.80;;;;;;4970229;28;95092;-46
2023/07/13 07:08:17;;;;;;;94.05;58.33;;;19.60;70.20;;;;;;4958362;28;95587;-45
2023/07/13 07:10:43;;;;;;;97.55;62.08;;;19.70;70.40;;;;;;4963126;28;97568;-45
2023/07/13 07:13:09;;;;;;;108.82;66.45;;;19.70;70.00;;;;;;4958107;28;95876;-42
2023/07/13 07:15:35;;;;;;;109.05;65.38;;;19.80;74.30;;;;;;4967788;28;95833;-44
2023/07/13 07:18:01;;;;;;;100.00;60.72;;;19.80;74.70;;;;;;4963389;28;95322;-44
2023/07/13 07:20:27;;;;;;;103.25;61.03;;;19.80;71.40;;;;;;4960869;28;96614;-44
2023/07/13 07:22:53;;;;;;;100.20;59.17;;;19.90;71.30;;;;;;4966020;28;98456;-44
2023/07/13 07:25:19;;;;;;;102.53;61.83;;;19.90;70.60;;;;;;4962422;28;95938;-45
2023/07/13 07:27:45;;;;;;;103.15;60.78;;;19.90;71.50;;;;;;4970453;28;95324;-43
2023/07/13 07:30:11;;;;;;;100.25;60.25;;;20.00;70.60;;;;;;4959972;28;95183;-43
2023/07/13 07:32:37;;;;;;;105.85;61.28;;;20.00;71.30;;;;;;4961311;28;96137;-44
2023/07/13 07:35:03;;;;;;;98.50;60.10;;;20.00;71.00;;;;;;4961580;28;95217;-43
2023/07/13 07:37:29;;;;;;;106.90;61.90;;;20.10;70.80;;;;;;4959016;28;96882;-43
2023/07/13 07:39:55;;;;;;;102.90;61.97;;;20.10;72.10;;;;;;4964670;28;97932;-45
2023/07/13 07:42:20;;;;;;;107.53;61.03;;;20.20;72.20;;;;;;4966652;28;98191;-44
2023/07/13 07:44:46;;;;;;;112.78;61.83;;;20.30;71.40;;;;;;4963326;28;96142;-43
2023/07/13 07:47:12;;;;;;;107.18;59.95;;;20.40;71.40;;;;;;4967259;28;96143;-43
2023/07/13 07:49:38;;;;;;;100.82;58.35;;;20.40;70.00;;;;;;4966349;28;95735;-45
2023/07/13 07:52:04;;;;;;;111.88;62.28;;;20.40;69.70;;;;;;4963685;28;97171;-44
2023/07/13 07:54:30;;;;;;;105.88;60.03;;;20.50;70.90;;;;;;4962820;28;97264;-43
2023/07/13 07:56:56;;;;;;;104.13;58.53;;;20.50;70.70;;;;;;4959473;28;97402;-43
2023/07/13 07:59:21;;;;;;;110.28;61.80;;;20.60;69.30;;;;;;4949600;28;96235;-43
2023/07/13 08:01:50;;;;;;;107.45;60.20;;;20.70;70.50;;;;;;4962258;28;94946;-43
2023/07/13 08:04:16;;;;;;;107.53;61.15;;;20.70;69.60;;;;;;4963668;28;95134;-45
2023/07/13 08:06:42;;;;;;;107.85;59.78;;;20.80;70.10;;;;;;4964812;28;98499;-44
2023/07/13 08:09:08;;;;;;;97.22;57.67;;;20.80;69.80;;;;;;4961084;28;99726;-43
2023/07/13 08:11:34;;;;;;;94.25;56.22;;;20.80;69.20;;;;;;4960382;28;95089;-43
2023/07/13 08:14:00;;;;;;;114.13;63.58;;;20.90;68.70;;;;;;4967587;28;96426;-43
2023/07/13 08:16:26;;;;;;;106.07;59.67;;;20.90;70.50;;;;;;4964938;28;95070;-45
2023/07/13 08:18:52;;;;;;;105.43;59.03;;;21.00;69.30;;;;;;4968262;28;94840;-43
2023/07/13 08:21:19;;;;;;;108.40;61.35;;;21.00;69.10;;;;;;4967224;28;95839;-44
2023/07/13 08:23:46;;;;;;;107.28;59.58;;;21.10;69.60;;;;;;4962149;28;96326;-44
2023/07/13 08:26:11;;;;;;;108.93;61.80;;;21.10;69.30;;;;;;4965191;28;95613;-44
2023/07/13 08:28:37;;;;;;;102.05;58.33;;;21.20;69.50;;;;;;4966392;28;95428;-44
2023/07/13 08:31:04;;;;;;;106.35;59.45;;;21.20;68.70;;;;;;4964728;28;97842;-44
2023/07/13 08:33:30;;;;;;;97.63;57.15;;;21.30;68.80;;;;;;4963101;28;97522;-46
2023/07/13 08:35:56;;;;;;;104.00;59.92;;;21.30;68.50;;;;;;4961888;28;95324;-44
2023/07/13 08:38:22;;;;;;;107.80;60.42;;;21.40;68.80;;;;;;4959759;28;96534;-43
2023/07/13 08:40:56;;;;;;;102.50;58.70;;;21.40;68.50;;;;;;4964571;28;94796;-44
2023/07/13 08:43:32;;;;;;;103.70;59.67;;;21.40;68.40;;;;;;4963735;28;94674;-45
2023/07/13 08:46:36;;;;;;;98.53;57.90;;;21.50;68.40;;;;;;4966273;28;100387;-43
2023/07/13 08:49:15;;;;;;;106.70;59.53;;;21.50;67.90;;;;;;4966841;28;94891;-42
2023/07/13 08:52:04;;;;;;;100.78;57.95;;;21.50;68.10;;;;;;4965098;28;94749;-44
2023/07/13 08:54:36;;;;;;;97.65;57.40;;;21.60;67.90;;;;;;4960359;28;98513;-44
2023/07/13 08:57:13;;;;;;;95.72;57.30;;;21.60;67.90;;;;;;4965993;28;95072;-45
2023/07/13 08:59:39;;;;;;;101.65;59.38;;;21.60;67.60;;;;;;4962829;28;96345;-44
2023/07/13 09:02:21;;;;;;;108.15;59.25;;;21.70;67.90;;;;;;4964068;28;96333;-45
2023/07/13 09:05:26;;;;;;;103.13;59.00;;;21.70;67.90;;;;;;4961536;28;95418;-44
2023/07/13 09:07:57;;;;;;;100.88;58.95;;;21.70;67.90;;;;;;4884513;28;98861;-44
2023/07/13 09:10:49;;;;;;;98.55;58.00;;;21.70;67.60;;;;;;4885015;28;94907;-44
2023/07/13 09:13:27;;;;;;;101.25;59.08;;;21.80;67.40;;;;;;4935754;28;97446;-44
2023/07/13 09:15:53;;;;;;;104.18;59.60;;;21.90;67.40;;;;;;4964969;28;100048;-43
2023/07/13 09:18:37;;;;;;;101.97;60.08;;;22.00;67.20;;;;;;4961308;28;94185;-43
2023/07/13 09:21:05;;;;;;;101.18;57.60;;;22.00;66.60;;;;;;4959708;28;100111;-43
2023/07/13 09:23:31;;;;;;;95.90;56.65;;;22.10;67.10;;;;;;4963238;28;95030;-43
2023/07/13 09:26:27;;;;;;;96.45;57.22;;;22.10;66.80;;;;;;4967191;28;97674;-45
2023/07/13 09:29:09;;;;;;;102.88;58.65;;;22.10;66.40;;;;;;4961902;28;95455;-45
2023/07/13 09:31:42;;;;;;;100.88;58.80;;;22.20;66.30;;;;;;4963440;28;95176;-47
2023/07/13 09:34:11;;;;;;;102.22;58.90;;;22.30;66.30;;;;;;4965202;28;96444;-44
2023/07/13 09:36:38;;;;;;;99.57;57.65;;;22.30;66.30;;;;;;4953324;28;94859;-45
2023/07/13 09:39:23;;;;;;;99.70;57.53;;;22.40;65.00;;;;;;4962194;28;96992;-44
2023/07/13 09:42:07;;;;;;;97.95;56.63;;;22.60;62.40;;;;;;4964446;28;96048;-45
2023/07/13 09:44:54;;;;;;;95.75;56.03;;;22.60;61.30;;;;;;4960723;28;94310;-41
2023/07/13 09:47:26;;;;;;;97.75;56.67;;;22.80;60.90;;;;;;4960905;28;95437;-42
2023/07/13 09:49:58;;;;;;;95.80;56.35;;;22.80;60.30;;;;;;4962134;28;98356;-42
2023/07/13 09:52:27;;;;;;;98.25;56.33;;;22.60;61.90;;;;;;4958889;28;96499;-42
2023/07/13 09:54:58;;;;;;;96.25;55.97;;;22.50;66.00;;;;;;4945040;28;99616;-45
2023/07/13 09:57:27;;;;;;;96.13;55.65;;;22.30;67.80;;;;;;4960753;28;94982;-43
2023/07/13 10:00:00;;;;;;;96.57;55.60;;;22.30;70.40;;;;;;4942925;28;97388;-45
2023/07/13 10:02:25;;;;;;;95.78;56.40;;;22.30;72.40;;;;;;4960433;28;96312;-44
2023/07/13 10:05:02;;;;;;;94.95;55.72;;;22.30;71.90;;;;;;4958934;28;95143;-43
2023/07/13 10:07:32;;;;;;;98.25;56.25;;;22.20;74.00;;;;;;4963831;28;95011;-44
2023/07/13 10:10:01;;;;;;;94.85;56.05;;;22.20;73.10;;;;;;4964229;28;95102;-45
2023/07/13 10:12:30;;;;;;;95.50;56.15;;;22.10;75.90;;;;;;4956536;28;94508;-43
2023/07/13 10:14:59;;;;;;;95.00;55.63;;;22.20;74.10;;;;;;4959835;28;95006;-45
2023/07/13 10:17:33;;;;;;;93.95;55.78;;;22.30;74.50;;;;;;4938725;28;98003;-42
2023/07/13 10:20:05;;;;;;;96.53;56.05;;;22.40;72.40;;;;;;4957674;28;99349;-44
2023/07/13 10:23:12;;;;;;;96.60;56.55;;;22.50;72.40;;;;;;4957469;28;98210;-42
2023/07/13 10:25:41;;;;;;;93.03;55.65;;;22.60;71.00;;;;;;4913250;28;96678;-43
2023/07/13 10:28:17;;;;;;;95.55;56.25;;;22.60;69.20;;;;;;4960873;28;95489;-46
2023/07/13 10:30:46;;;;;;;97.10;55.95;;;22.70;68.90;;;;;;4961925;28;95768;-43
2023/07/13 10:33:13;;;;;;;95.85;56.08;;;22.80;68.00;;;;;;4959622;28;95908;-42
2023/07/13 10:35:46;;;;;;;94.88;56.25;;;22.80;66.30;;;;;;4951299;28;96358;-44
2023/07/13 10:38:18;;;;;;;99.38;56.17;;;22.90;64.70;;;;;;4940120;28;96587;-44
2023/07/13 10:41:03;;;;;;;94.40;55.70;;;23.00;62.80;;;;;;4955431;28;95673;-44
2023/07/13 10:43:40;;;;;;;97.20;55.65;;;23.00;64.00;;;;;;4956086;28;96755;-44
2023/07/13 10:46:09;;;;;;;93.50;56.05;;;22.90;64.80;;;;;;4959379;28;95859;-45
2023/07/13 10:48:36;;;;;;;96.80;56.50;;;22.90;65.30;;;;;;4961528;28;95683;-44
2023/07/13 10:51:06;;;;;;;91.93;55.13;;;23.00;65.10;;;;;;4956877;28;99729;-44
2023/07/13 10:53:37;;;;;;;94.25;55.53;;;23.10;63.50;;;;;;4956272;28;95513;-46
2023/07/13 10:56:25;;;;;;;95.00;56.03;;;23.10;60.50;;;;;;4956954;28;96220;-43
2023/07/13 10:59:11;;;;;;;95.03;55.67;;;23.20;62.00;;;;;;4948248;28;99209;-44
2023/07/13 11:02:04;;;;;;;95.70;55.60;;;23.10;62.50;;;;;;4957780;28;98434;-45
2023/07/13 11:04:41;;;;;;;94.72;55.53;;;22.90;65.30;;;;;;4952542;28;94730;-46
2023/07/13 11:07:22;;;;;;;93.93;55.33;;;22.80;65.90;;;;;;4960316;28;97587;-42
2023/07/13 11:09:59;;;;;;;95.03;56.00;;;22.80;66.50;;;;;;4956811;28;97149;-44
2023/07/13 11:12:26;;;;;;;95.05;55.70;;;22.90;67.50;;;;;;4958682;28;95538;-42
2023/07/13 11:14:54;;;;;;;96.07;55.88;;;23.00;66.80;;;;;;4954304;28;95301;-42
2023/07/13 11:17:49;;;;;;;93.05;55.70;;;22.90;68.90;;;;;;4962978;28;94854;-42
2023/07/13 11:20:14;;;;;;;91.90;55.35;;;23.00;68.70;;;;;;4955650;28;95893;-41
2023/07/13 11:22:52;;;;;;;93.45;55.42;;;23.00;66.40;;;;;;4961600;28;98158;-42
2023/07/13 11:25:29;;;;;;;92.22;55.17;;;22.90;65.40;;;;;;4962568;28;95669;-41
2023/07/13 11:28:09;;;;;;;91.53;55.00;;;23.00;67.40;;;;;;4962594;28;95486;-42
2023/07/13 11:30:44;;;;;;;92.15;55.08;;;23.00;65.80;;;;;;4958642;28;95805;-42
2023/07/13 11:33:20;;;;;;;92.38;55.40;;;23.00;65.80;;;;;;4959316;28;95009;-42
2023/07/13 11:36:06;;;;;;;93.22;55.10;;;23.00;66.70;;;;;;4956758;28;96272;-45
2023/07/13 11:38:41;;;;;;;92.20;55.28;;;23.10;63.40;;;;;;4959891;28;95082;-41
2023/07/13 11:41:15;;;;;;;90.93;55.10;;;23.10;63.90;;;;;;4962303;28;98219;-42
2023/07/13 11:43:42;;;;;;;95.90;55.15;;;23.00;60.80;;;;;;4963238;28;97908;-41
2023/07/13 11:46:20;;;;;;;91.50;55.20;;;23.10;62.20;;;;;;4945019;28;95876;-41
2023/07/13 11:48:47;;;;;;;92.43;55.10;;;23.20;62.00;;;;;;4962195;28;95370;-41
2023/07/13 11:51:26;;;;;;;92.60;55.22;;;23.20;61.70;;;;;;4964287;28;95393;-42
2023/07/13 11:53:53;;;;;;;93.07;55.20;;;23.20;60.30;;;;;;4963143;28;94708;-41
2023/07/13 11:56:19;;;;;;;95.53;55.33;;;23.20;61.20;;;;;;4962481;28;95509;-42
2023/07/13 11:58:52;;;;;;;92.10;55.28;;;23.20;60.10;;;;;;4966730;28;95334;-42
2023/07/13 12:01:25;;;;;;;93.30;55.20;;;23.20;60.30;;;;;;4964608;28;99606;-43
2023/07/13 12:03:53;;;;;;;94.75;55.50;;;23.30;61.10;;;;;;4962887;28;95568;-43
2023/07/13 12:06:39;;;;;;;92.90;55.47;;;23.40;61.20;;;;;;4963917;28;99813;-43
2023/07/13 12:09:12;;;;;;;93.63;55.65;;;23.50;60.80;;;;;;4964681;28;97360;-42
2023/07/13 12:11:41;;;;;;;94.70;55.50;;;23.50;58.30;;;;;;4959995;28;97287;-41
2023/07/13 12:14:16;;;;;;;92.97;55.22;;;23.60;59.00;;;;;;4962371;28;95476;-42
2023/07/13 12:16:42;;;;;;;94.63;55.80;;;23.60;56.00;;;;;;4964008;28;94713;-42
2023/07/13 12:19:19;;;;;;;95.53;55.70;;;23.70;54.90;;;;;;4964618;28;94463;-41
2023/07/13 12:21:46;;;;;;;94.32;55.20;;;23.70;56.40;;;;;;4964770;28;95266;-41
2023/07/13 12:24:15;;;;;;;92.43;55.65;;;23.70;54.80;;;;;;4962139;28;103006;-41
2023/07/13 12:26:41;;;;;;;95.45;55.83;;;23.70;52.60;;;;;;4963187;28;95807;-41
2023/07/13 12:29:07;;;;;;;91.95;55.42;;;23.80;54.80;;;;;;4964178;28;94866;-42
2023/07/13 12:31:52;;;;;;;91.65;55.45;;;23.80;52.60;;;;;;4958045;28;96642;-42
2023/07/13 12:34:24;;;;;;;93.60;55.80;;;23.90;51.80;;;;;;4965181;28;95888;-42
2023/07/13 12:37:01;;;;;;;93.43;55.55;;;23.80;53.40;;;;;;4962943;28;97330;-42